createdAt,value
2022-09-01T00:00:48.017Z,48.45
2022-09-01T00:03:18.503Z,48.48
2022-09-01T00:05:48.937Z,48.38
2022-09-01T00:08:17.683Z,48.39
2022-09-01T00:10:47.319Z,48.32
2022-09-01T00:13:15.673Z,48.34
2022-09-01T00:15:44.329Z,48.51
2022-09-01T00:18:13.593Z,48.29
2022-09-01T00:20:43.303Z,48.40
2022-09-01T00:23:11.530Z,48.58
2022-09-01T00:25:40.176Z,48.55
2022-09-01T00:28:08.324Z,48.76
2022-09-01T00:30:36.715Z,49.06
2022-09-01T00:33:05.311Z,49.14
2022-09-01T00:35:37.327Z,49.29
2022-09-01T00:38:07.382Z,49.56
2022-09-01T00:40:35.561Z,50.00
2022-09-01T00:43:13.104Z,50.00
2022-09-01T00:45:42.681Z,50.22
2022-09-01T00:48:10.862Z,50.48
2022-09-01T00:50:40.038Z,50.59
2022-09-01T00:53:10.912Z,50.76
2022-09-01T00:55:39.383Z,51.05
2022-09-01T00:58:18.396Z,51.19
2022-09-01T01:00:51.981Z,51.52
2022-09-01T01:03:21.291Z,51.59
2022-09-01T01:05:54.904Z,51.97
2022-09-01T01:08:33.995Z,52.08
2022-09-01T01:11:03.740Z,52.59
2022-09-01T01:13:36.356Z,52.66
2022-09-01T01:16:12.000Z,52.51
2022-09-01T01:18:40.265Z,53.07
2022-09-01T01:21:33.962Z,53.31
2022-09-01T01:24:07.687Z,53.42
2022-09-01T01:26:37.997Z,53.86
2022-09-01T01:29:09.911Z,54.07
2022-09-01T01:31:38.523Z,54.18
2022-09-01T01:34:07.936Z,54.40
2022-09-01T01:36:41.140Z,54.47
2022-09-01T01:39:11.784Z,54.66
2022-09-01T01:41:45.169Z,55.11
2022-09-01T01:44:15.275Z,54.92
2022-09-01T01:46:47.186Z,55.35
2022-09-01T01:49:19.955Z,55.41
2022-09-01T01:51:49.837Z,55.38
2022-09-01T01:54:18.920Z,55.60
2022-09-01T01:56:48.351Z,55.70
2022-09-01T01:59:16.443Z,55.63
2022-09-01T02:01:51.329Z,55.54
2022-09-01T02:04:21.072Z,55.71
2022-09-01T02:06:50.281Z,55.58
2022-09-01T02:09:21.180Z,55.90
2022-09-01T02:11:53.598Z,55.82
2022-09-01T02:14:22.212Z,56.08
2022-09-01T02:16:50.942Z,56.17
2022-09-01T02:19:21.049Z,56.06
2022-09-01T02:21:54.151Z,56.43
2022-09-01T02:24:23.953Z,57.27
2022-09-01T02:26:53.466Z,57.34
2022-09-01T02:29:23.901Z,57.49
2022-09-01T02:31:54.787Z,57.69
2022-09-01T02:34:25.897Z,57.62
2022-09-01T02:36:55.160Z,58.04
2022-09-01T02:39:25.724Z,58.40
2022-09-01T02:41:55.513Z,58.39
2022-09-01T02:44:23.660Z,58.27
2022-09-01T02:46:52.356Z,58.48
2022-09-01T02:49:29.922Z,58.89
2022-09-01T02:52:01.492Z,58.77
2022-09-01T02:54:32.908Z,59.13
2022-09-01T02:57:03.198Z,59.10
2022-09-01T02:59:31.807Z,59.37
2022-09-01T03:02:00.047Z,59.58
2022-09-01T03:04:28.948Z,59.58
2022-09-01T03:06:58.698Z,59.21
2022-09-01T03:09:28.009Z,59.59
2022-09-01T03:11:56.664Z,59.73
2022-09-01T03:14:26.585Z,60.03
2022-09-01T03:16:54.865Z,60.61
2022-09-01T03:19:23.197Z,60.17
2022-09-01T03:21:51.521Z,60.45
2022-09-01T03:24:20.018Z,60.46
2022-09-01T03:26:51.346Z,60.05
2022-09-01T03:29:20.340Z,60.25
2022-09-01T03:31:50.320Z,60.01
2022-09-01T03:34:21.670Z,60.18
2022-09-01T03:36:51.097Z,60.39
2022-09-01T03:39:19.893Z,60.24
2022-09-01T03:41:48.095Z,60.23
2022-09-01T03:44:16.300Z,60.17
2022-09-01T03:46:45.216Z,60.51
2022-09-01T03:49:24.945Z,60.22
2022-09-01T03:51:53.843Z,60.55
2022-09-01T03:54:24.828Z,61.10
2022-09-01T03:56:54.966Z,61.16
2022-09-01T03:59:25.773Z,61.03
2022-09-01T04:01:54.363Z,61.25
2022-09-01T04:04:24.597Z,61.22
2022-09-01T04:06:52.707Z,61.76
2022-09-01T04:09:20.936Z,61.50
2022-09-01T04:11:51.635Z,61.62
2022-09-01T04:14:20.343Z,61.63
2022-09-01T04:17:06.251Z,61.41
2022-09-01T04:19:39.472Z,61.45
2022-09-01T04:22:13.483Z,61.61
2022-09-01T04:24:46.201Z,60.96
2022-09-01T04:27:18.043Z,60.79
2022-09-01T04:29:46.940Z,60.92
2022-09-01T04:32:15.875Z,60.90
2022-09-01T04:34:45.506Z,61.17
2022-09-01T04:37:18.144Z,61.02
2022-09-01T04:39:55.626Z,61.06
2022-09-01T04:42:27.168Z,60.81
2022-09-01T04:44:57.505Z,60.76
2022-09-01T04:47:31.703Z,60.90
2022-09-01T04:50:14.142Z,60.89
2022-09-01T04:52:43.111Z,61.32
2022-09-01T04:55:17.677Z,61.34
2022-09-01T04:57:47.575Z,61.14
2022-09-01T05:00:23.367Z,61.14
2022-09-01T05:02:53.762Z,60.74
2022-09-01T05:05:24.757Z,60.38
2022-09-01T05:07:55.465Z,59.95
2022-09-01T05:10:29.820Z,60.39
2022-09-01T05:12:58.407Z,59.62
2022-09-01T05:15:26.533Z,59.73
2022-09-01T05:17:54.688Z,59.70
2022-09-01T05:20:25.065Z,59.61
2022-09-01T05:22:57.445Z,59.58
2022-09-01T05:25:27.409Z,59.98
2022-09-01T05:27:55.786Z,59.84
2022-09-01T05:30:28.732Z,59.89
2022-09-01T05:32:57.061Z,59.85
2022-09-01T05:35:32.365Z,59.77
2022-09-01T05:38:02.418Z,59.76
2022-09-01T05:40:30.658Z,59.49
2022-09-01T05:42:59.346Z,59.11
2022-09-01T05:45:28.028Z,59.14
2022-09-01T05:47:57.052Z,58.82
2022-09-01T05:50:28.206Z,58.69
2022-09-01T05:52:56.479Z,58.39
2022-09-01T05:55:27.796Z,58.58
2022-09-01T05:57:57.203Z,58.62
2022-09-01T06:00:34.961Z,58.57
2022-09-01T06:03:11.004Z,58.21
2022-09-01T06:05:41.130Z,57.95
2022-09-01T06:08:10.669Z,57.85
2022-09-01T06:10:39.956Z,57.82
2022-09-01T06:13:09.368Z,57.25
2022-09-01T06:15:39.855Z,57.36
2022-09-01T06:18:09.163Z,56.95
2022-09-01T06:20:41.705Z,56.85
2022-09-01T06:23:12.571Z,56.61
2022-09-01T06:25:42.256Z,56.28
2022-09-01T06:28:13.673Z,56.31
2022-09-01T06:30:42.656Z,55.91
2022-09-01T06:33:14.061Z,55.87
2022-09-01T06:35:47.183Z,55.82
2022-09-01T06:38:19.317Z,55.44
2022-09-01T06:40:48.697Z,55.41
2022-09-01T06:43:19.606Z,55.15
2022-09-01T06:45:54.196Z,55.16
2022-09-01T06:48:23.558Z,55.25
2022-09-01T06:53:41.591Z,54.56
2022-09-01T06:56:13.461Z,54.23
2022-09-01T06:58:44.993Z,53.71
2022-09-01T07:01:15.383Z,53.49
2022-09-01T07:04:12.795Z,53.34
2022-09-01T07:09:47.972Z,51.96
2022-09-01T07:12:27.842Z,51.79
2022-09-01T07:17:48.965Z,50.91
2022-09-01T07:20:25.288Z,50.97
2022-09-01T07:23:05.719Z,49.94
2022-09-01T07:28:36.075Z,44.22
2022-09-01T07:34:38.456Z,38.32
2022-09-01T07:39:52.541Z,34.47
2022-09-01T07:45:28.875Z,32.90
2022-09-01T07:48:00.024Z,32.39
2022-09-01T07:53:22.485Z,31.86
2022-09-01T07:55:53.550Z,30.49
2022-09-01T07:58:23.748Z,30.19
2022-09-01T08:00:53.209Z,31.02
2022-09-01T08:03:24.184Z,31.17
2022-09-01T08:05:57.651Z,32.83
2022-09-01T08:08:29.095Z,30.19
2022-09-01T08:11:06.327Z,29.39
2022-09-01T08:13:41.204Z,27.84
2022-09-01T08:16:18.911Z,27.63
2022-09-01T08:18:49.129Z,30.26
2022-09-01T08:21:21.945Z,28.08
2022-09-01T08:23:50.956Z,25.81
2022-09-01T08:26:23.161Z,24.43
2022-09-01T08:28:56.151Z,22.42
2022-09-01T08:31:30.663Z,21.57
2022-09-01T08:34:00.150Z,22.31
2022-09-01T08:36:28.301Z,23.34
2022-09-01T08:38:56.628Z,22.63
2022-09-01T08:41:47.165Z,24.33
2022-09-01T08:44:28.458Z,22.92
2022-09-01T08:47:02.754Z,24.08
2022-09-01T08:49:42.130Z,23.68
2022-09-01T08:52:22.974Z,21.71
2022-09-01T08:54:54.949Z,19.11
2022-09-01T08:57:27.897Z,24.42
2022-09-01T08:59:56.792Z,22.04
2022-09-01T09:02:38.771Z,22.04
2022-09-01T09:05:16.742Z,21.61
2022-09-01T09:08:08.232Z,21.35
2022-09-01T09:10:47.961Z,21.80
2022-09-01T09:13:25.569Z,21.03
2022-09-01T09:16:07.760Z,20.62
2022-09-01T09:18:54.860Z,20.89
2022-09-01T09:21:28.005Z,21.95
2022-09-01T09:24:01.619Z,23.52
2022-09-01T09:26:42.341Z,24.34
2022-09-01T09:29:12.935Z,23.64
2022-09-01T09:31:50.051Z,22.32
2022-09-01T09:34:33.261Z,19.72
2022-09-01T09:37:24.688Z,19.48
2022-09-01T09:40:12.217Z,21.43
2022-09-01T09:42:43.196Z,20.77
2022-09-01T09:45:24.708Z,22.55
2022-09-01T09:47:54.220Z,21.90
2022-09-01T09:50:31.666Z,20.60
2022-09-01T09:53:19.202Z,20.02
2022-09-01T09:55:56.427Z,19.27
2022-09-01T09:58:27.753Z,21.46
2022-09-01T10:01:03.966Z,21.14
2022-09-01T10:03:42.036Z,18.59
2022-09-01T10:06:17.836Z,18.14
2022-09-01T10:08:48.175Z,18.36
2022-09-01T10:11:35.420Z,19.58
2022-09-01T10:14:07.539Z,21.15
2022-09-01T10:16:39.830Z,21.08
2022-09-01T10:19:13.708Z,22.24
2022-09-01T10:21:46.075Z,20.33
2022-09-01T10:24:26.918Z,18.62
2022-09-01T10:27:02.396Z,18.94
2022-09-01T10:29:35.248Z,17.36
2022-09-01T10:32:35.019Z,17.77
2022-09-01T10:35:07.363Z,16.15
2022-09-01T10:37:36.045Z,15.37
2022-09-01T10:40:43.327Z,15.84
2022-09-01T10:43:41.564Z,18.64
2022-09-01T10:46:50.451Z,18.88
2022-09-01T10:49:50.695Z,17.07
2022-09-01T10:52:54.034Z,16.88
2022-09-01T10:55:26.227Z,16.01
2022-09-01T11:01:35.003Z,16.70
2022-09-01T11:04:05.041Z,16.45
2022-09-01T11:09:45.114Z,17.35
2022-09-01T11:12:29.837Z,17.64
2022-09-01T11:15:00.608Z,18.97
2022-09-01T11:17:31.835Z,17.68
2022-09-01T11:20:08.724Z,19.85
2022-09-01T11:22:41.533Z,24.49
2022-09-01T11:25:40.104Z,21.82
2022-09-01T11:28:53.366Z,19.48
2022-09-01T11:31:26.819Z,18.08
2022-09-01T11:34:17.285Z,16.57
2022-09-01T11:36:58.919Z,16.89
2022-09-01T11:39:35.896Z,17.47
2022-09-01T11:42:10.116Z,15.89
2022-09-01T11:44:45.728Z,18.67
2022-09-01T11:47:18.138Z,20.08
2022-09-01T11:49:53.516Z,21.16
2022-09-01T11:52:24.546Z,18.59
2022-09-01T11:54:55.377Z,17.27
2022-09-01T11:57:29.982Z,22.57
2022-09-01T12:00:00.393Z,21.98
2022-09-01T12:02:33.682Z,19.25
2022-09-01T12:05:26.223Z,17.96
2022-09-01T12:07:55.232Z,19.35
2022-09-01T12:10:32.811Z,21.17
2022-09-01T12:13:03.350Z,23.17
2022-09-01T12:15:31.663Z,20.21
2022-09-01T12:18:14.053Z,19.30
2022-09-01T12:20:42.837Z,22.45
2022-09-01T12:23:24.028Z,21.75
2022-09-01T12:25:55.808Z,20.99
2022-09-01T12:28:24.990Z,18.61
2022-09-01T12:30:55.637Z,17.57
2022-09-01T12:33:25.654Z,15.90
2022-09-01T12:36:12.450Z,19.06
2022-09-01T12:38:41.077Z,16.94
2022-09-01T12:44:37.123Z,21.63
2022-09-01T12:47:09.847Z,20.62
2022-09-01T12:49:50.577Z,20.54
2022-09-01T12:52:26.258Z,21.44
2022-09-01T12:55:12.488Z,19.55
2022-09-01T12:57:48.544Z,18.04
2022-09-01T13:00:20.360Z,17.86
2022-09-01T13:02:53.210Z,17.29
2022-09-01T13:05:31.916Z,16.62
2022-09-01T13:08:04.104Z,18.90
2022-09-01T13:10:35.699Z,19.83
2022-09-01T13:13:04.131Z,18.07
2022-09-01T13:15:33.448Z,15.65
2022-09-01T13:18:03.410Z,15.98
2022-09-01T13:20:31.842Z,17.58
2022-09-01T13:23:00.172Z,17.91
2022-09-01T13:25:28.673Z,16.16
2022-09-01T13:27:56.976Z,16.23
2022-09-01T13:30:28.393Z,16.74
2022-09-01T13:35:48.914Z,20.54
2022-09-01T13:38:18.048Z,20.66
2022-09-01T13:40:47.961Z,17.94
2022-09-01T13:43:17.548Z,16.86
2022-09-01T13:45:45.902Z,18.54
2022-09-01T13:48:15.853Z,17.52
2022-09-01T13:53:36.589Z,18.45
2022-09-01T13:56:05.408Z,18.41
2022-09-01T13:58:33.609Z,17.81
2022-09-01T14:01:02.369Z,18.92
2022-09-01T14:03:32.195Z,18.23
2022-09-01T14:06:00.867Z,17.15
2022-09-01T14:08:30.781Z,19.66
2022-09-01T14:11:00.648Z,18.01
2022-09-01T14:13:31.102Z,17.71
2022-09-01T14:16:00.143Z,16.42
2022-09-01T14:18:32.907Z,18.24
2022-09-01T14:21:01.519Z,20.86
2022-09-01T14:23:30.107Z,19.54
2022-09-01T14:26:00.454Z,18.02
2022-09-01T14:28:28.837Z,18.18
2022-09-01T14:33:27.301Z,18.49
2022-09-01T14:35:55.682Z,18.50
2022-09-01T14:38:24.068Z,19.08
2022-09-01T14:40:53.263Z,22.73
2022-09-01T14:43:23.222Z,23.89
2022-09-01T14:45:52.013Z,23.43
2022-09-01T14:48:21.558Z,22.80
2022-09-01T14:51:01.049Z,23.30
2022-09-01T14:53:31.028Z,22.09
2022-09-01T14:56:00.256Z,21.79
2022-09-01T14:58:30.890Z,23.52
2022-09-01T15:01:17.570Z,25.13
2022-09-01T15:03:48.999Z,26.73
2022-09-01T15:06:19.846Z,26.79
2022-09-01T15:08:57.512Z,27.37
2022-09-01T15:11:28.452Z,26.57
2022-09-01T15:13:58.812Z,27.19
2022-09-01T15:16:28.641Z,27.10
2022-09-01T15:18:56.852Z,27.25
2022-09-01T15:21:28.570Z,27.61
2022-09-01T15:23:57.575Z,27.29
2022-09-01T15:26:28.237Z,27.64
2022-09-01T15:28:58.833Z,27.38
2022-09-01T15:31:32.363Z,27.50
2022-09-01T15:34:03.863Z,27.36
2022-09-01T15:36:36.331Z,27.21
2022-09-01T15:39:05.153Z,27.75
2022-09-01T15:41:34.652Z,28.62
2022-09-01T15:44:06.985Z,28.39
2022-09-01T15:46:35.998Z,29.06
2022-09-01T15:49:08.717Z,28.91
2022-09-01T15:51:39.005Z,28.91
2022-09-01T15:54:10.017Z,28.78
2022-09-01T15:56:38.595Z,28.65
2022-09-01T15:59:09.149Z,28.79
2022-09-01T16:01:40.511Z,28.98
2022-09-01T16:04:15.826Z,29.21
2022-09-01T16:06:46.651Z,29.22
2022-09-01T16:09:15.105Z,29.50
2022-09-01T16:11:43.397Z,30.15
2022-09-01T16:14:14.094Z,29.65
2022-09-01T16:16:54.505Z,29.55
2022-09-01T16:19:33.840Z,29.86
2022-09-01T16:22:11.926Z,30.28
2022-09-01T16:24:44.341Z,30.20
2022-09-01T16:27:15.666Z,30.00
2022-09-01T16:29:49.676Z,30.08
2022-09-01T16:32:21.295Z,30.02
2022-09-01T16:34:51.383Z,29.98
2022-09-01T16:37:46.000Z,30.07
2022-09-01T16:40:28.052Z,30.35
2022-09-01T16:43:05.150Z,30.61
2022-09-01T16:45:45.136Z,30.48
2022-09-01T16:48:20.190Z,31.04
2022-09-01T16:50:57.651Z,30.92
2022-09-01T16:53:50.464Z,31.00
2022-09-01T16:56:26.091Z,30.77
2022-09-01T16:59:03.213Z,31.31
2022-09-01T17:01:45.357Z,30.72
2022-09-01T17:04:29.108Z,31.08
2022-09-01T17:07:04.026Z,31.42
2022-09-01T17:09:35.641Z,31.68
2022-09-01T17:12:23.349Z,31.60
2022-09-01T17:14:58.350Z,32.02
2022-09-01T17:17:43.266Z,32.64
2022-09-01T17:20:13.993Z,33.17
2022-09-01T17:22:54.263Z,33.48
2022-09-01T17:25:29.740Z,33.61
2022-09-01T17:28:02.337Z,33.92
2022-09-01T17:30:35.420Z,34.36
2022-09-01T17:33:18.365Z,34.67
2022-09-01T17:36:03.524Z,35.02
2022-09-01T17:38:49.061Z,35.23
2022-09-01T17:41:25.002Z,35.54
2022-09-01T17:44:03.004Z,35.69
2022-09-01T17:46:38.681Z,35.97
2022-09-01T17:49:16.903Z,36.07
2022-09-01T17:51:55.319Z,36.50
2022-09-01T17:54:32.024Z,36.83
2022-09-01T17:57:11.262Z,37.31
2022-09-01T17:59:44.791Z,37.64
2022-09-01T18:02:30.970Z,37.83
2022-09-01T18:05:09.707Z,38.19
2022-09-01T18:07:56.794Z,38.33
2022-09-01T18:10:31.414Z,38.63
2022-09-01T18:13:05.105Z,38.64
2022-09-01T18:15:43.974Z,38.66
2022-09-01T18:18:27.840Z,38.86
2022-09-01T18:21:04.460Z,39.07
2022-09-01T18:23:38.199Z,39.30
2022-09-01T18:26:15.570Z,39.60
2022-09-01T18:28:44.288Z,39.93
2022-09-01T18:31:24.726Z,39.96
2022-09-01T18:34:07.799Z,40.00
2022-09-01T18:36:48.994Z,40.14
2022-09-01T18:39:22.866Z,40.25
2022-09-01T18:42:03.252Z,40.09
2022-09-01T18:44:44.338Z,40.28
2022-09-01T18:47:15.590Z,40.32
2022-09-01T18:49:55.780Z,40.13
2022-09-01T18:52:44.732Z,40.10
2022-09-01T18:55:22.091Z,40.01
2022-09-01T18:57:54.555Z,40.36
2022-09-01T19:00:30.750Z,40.41
2022-09-01T19:03:08.051Z,40.72
2022-09-01T19:05:54.933Z,40.83
2022-09-01T19:08:48.818Z,41.01
2022-09-01T19:11:27.892Z,40.89
2022-09-01T19:14:04.549Z,41.30
2022-09-01T19:16:50.001Z,41.38
2022-09-01T19:19:31.496Z,41.42
2022-09-01T19:22:01.525Z,41.22
2022-09-01T19:24:36.730Z,41.28
2022-09-01T19:27:11.128Z,41.66
2022-09-01T19:29:52.415Z,41.53
2022-09-01T19:32:23.493Z,41.78
2022-09-01T19:34:57.375Z,41.57
2022-09-01T19:37:27.450Z,41.64
2022-09-01T19:39:57.198Z,41.68
2022-09-01T19:42:32.708Z,41.77
2022-09-01T19:45:07.330Z,41.95
2022-09-01T19:47:42.850Z,42.28
2022-09-01T19:50:19.952Z,42.32
2022-09-01T19:52:56.694Z,42.31
2022-09-01T19:55:31.710Z,42.54
2022-09-01T19:58:04.464Z,42.40
2022-09-01T20:00:51.003Z,42.73
2022-09-01T20:03:26.989Z,42.78
2022-09-01T20:05:58.804Z,42.73
2022-09-01T20:08:34.820Z,42.92
2022-09-01T20:11:14.632Z,43.11
2022-09-01T20:13:55.940Z,43.14
2022-09-01T20:16:31.467Z,43.27
2022-09-01T20:19:06.280Z,43.44
2022-09-01T20:21:42.375Z,43.28
2022-09-01T20:24:18.911Z,43.74
2022-09-01T20:26:59.511Z,43.98
2022-09-01T20:29:44.568Z,43.81
2022-09-01T20:32:17.825Z,43.92
2022-09-01T20:34:55.035Z,43.82
2022-09-01T20:37:37.769Z,44.25
2022-09-01T20:40:09.869Z,44.25
2022-09-01T20:42:46.398Z,44.41
2022-09-01T20:45:17.314Z,44.24
2022-09-01T20:47:50.378Z,44.46
2022-09-01T20:50:21.477Z,44.28
2022-09-01T20:53:04.724Z,44.49
2022-09-01T20:55:40.180Z,44.40
2022-09-01T20:58:16.956Z,44.60
2022-09-01T21:00:51.765Z,44.49
2022-09-01T21:03:34.125Z,44.23
2022-09-01T21:06:15.072Z,44.46
2022-09-01T21:08:49.047Z,44.81
2022-09-01T21:11:30.046Z,45.23
2022-09-01T21:14:14.353Z,44.78
2022-09-01T21:16:57.455Z,45.06
2022-09-01T21:19:33.135Z,44.99
2022-09-01T21:22:07.036Z,44.64
2022-09-01T21:24:36.471Z,45.05
2022-09-01T21:27:09.421Z,45.23
2022-09-01T21:29:50.898Z,45.25
2022-09-01T21:32:19.718Z,45.96
2022-09-01T21:34:53.737Z,46.32
2022-09-01T21:37:23.752Z,46.46
2022-09-01T21:39:53.523Z,46.38
2022-09-01T21:42:23.839Z,46.45
2022-09-01T21:44:55.961Z,46.31
2022-09-01T21:47:24.860Z,46.11
2022-09-01T21:49:53.277Z,46.41
2022-09-01T21:52:21.698Z,46.54
2022-09-01T21:54:50.110Z,46.64
2022-09-01T21:57:20.923Z,46.73
2022-09-01T21:59:49.419Z,46.78
2022-09-01T22:02:20.132Z,46.91
2022-09-01T22:04:49.260Z,47.02
2022-09-01T22:07:21.096Z,47.30
2022-09-01T22:09:49.968Z,47.51
2022-09-01T22:12:18.492Z,47.18
2022-09-01T22:14:46.695Z,47.35
2022-09-01T22:17:14.895Z,47.37
2022-09-01T22:19:44.872Z,47.67
2022-09-01T22:22:13.531Z,47.89
2022-09-01T22:24:41.855Z,47.91
2022-09-01T22:27:10.117Z,48.11
2022-09-01T22:29:39.252Z,48.23
2022-09-01T22:32:08.761Z,48.40
2022-09-01T22:34:37.508Z,48.59
2022-09-01T22:37:08.585Z,48.70
2022-09-01T22:39:36.896Z,49.04
2022-09-01T22:42:05.670Z,49.25
2022-09-01T22:44:33.920Z,49.23
2022-09-01T22:47:05.853Z,49.38
2022-09-01T22:49:34.439Z,49.31
2022-09-01T22:52:03.159Z,49.17
2022-09-01T22:54:33.497Z,49.32
2022-09-01T22:57:02.178Z,49.34
2022-09-01T22:59:30.605Z,49.45
2022-09-01T23:02:01.355Z,49.67
2022-09-01T23:04:32.108Z,49.55
2022-09-01T23:07:01.060Z,49.58
2022-09-01T23:09:29.738Z,49.76
2022-09-01T23:11:59.847Z,49.64
2022-09-01T23:14:28.886Z,49.66
2022-09-01T23:16:57.319Z,49.73
2022-09-01T23:19:25.876Z,49.71
2022-09-01T23:21:54.602Z,49.84
2022-09-01T23:24:23.071Z,49.70
2022-09-01T23:26:51.486Z,50.07
2022-09-01T23:29:22.035Z,50.11
2022-09-01T23:31:51.466Z,50.20
2022-09-01T23:34:19.746Z,50.31
2022-09-01T23:36:48.368Z,50.49
2022-09-01T23:39:16.877Z,50.58
2022-09-01T23:41:45.202Z,50.55
2022-09-01T23:44:14.334Z,50.49
2022-09-01T23:46:46.997Z,50.83
2022-09-01T23:49:17.210Z,50.65
2022-09-01T23:51:46.746Z,50.92
2022-09-01T23:54:15.539Z,50.96
2022-09-01T23:56:43.838Z,51.23
2022-09-01T23:59:12.076Z,51.36
